sensor_id;sensor_type;location;lat;lon;timestamp;pressure;altitude;pressure_sealevel;temperature;humidity
48035;BME280;33812;46.480;6.834;2023-09-08T00:02:52;94009.63;;;25.69;52.40
48035;BME280;33812;46.480;6.834;2023-09-08T00:06:54;94003.13;;;25.72;52.57
48035;BME280;33812;46.480;6.834;2023-09-08T00:10:56;94005.13;;;25.71;52.18
48035;BME280;33812;46.480;6.834;2023-09-08T00:14:58;94003.13;;;25.72;52.14
48035;BME280;33812;46.480;6.834;2023-09-08T00:19:01;94009.44;;;25.73;52.29
48035;BME280;33812;46.480;6.834;2023-09-08T00:23:03;94016.25;;;25.71;52.02
48035;BME280;33812;46.480;6.834;2023-09-08T00:27:05;94005.91;;;25.72;52.31
48035;BME280;33812;46.480;6.834;2023-09-08T00:31:08;94009.63;;;25.69;51.96
48035;BME280;33812;46.480;6.834;2023-09-08T00:35:12;94011.94;;;25.70;52.45
48035;BME280;33812;46.480;6.834;2023-09-08T00:39:14;94007.13;;;25.71;52.23
48035;BME280;33812;46.480;6.834;2023-09-08T00:43:16;94013.94;;;25.70;51.83
48035;BME280;33812;46.480;6.834;2023-09-08T00:47:19;94014.25;;;25.72;51.82
48035;BME280;33812;46.480;6.834;2023-09-08T00:51:22;94018.25;;;25.71;51.85
48035;BME280;33812;46.480;6.834;2023-09-08T00:55:24;94020.28;;;25.70;51.72
48035;BME280;33812;46.480;6.834;2023-09-08T00:59:26;94015.47;;;25.71;51.70
48035;BME280;33812;46.480;6.834;2023-09-08T01:03:29;94016.25;;;25.71;52.02
48035;BME280;33812;46.480;6.834;2023-09-08T01:07:32;94016.25;;;25.71;51.64
48035;BME280;33812;46.480;6.834;2023-09-08T01:11:35;94016.72;;;25.70;51.88
48035;BME280;33812;46.480;6.834;2023-09-08T01:15:37;94015.94;;;25.69;51.97
48035;BME280;33812;46.480;6.834;2023-09-08T01:19:39;94005.59;;;25.70;51.63
48035;BME280;33812;46.480;6.834;2023-09-08T01:23:56;94016.72;;;25.70;51.43
48035;BME280;33812;46.480;6.834;2023-09-08T01:28:02;94007.91;;;25.71;51.45
48035;BME280;33812;46.480;6.834;2023-09-08T01:32:06;94011.94;;;25.70;51.18
48035;BME280;33812;46.480;6.834;2023-09-08T01:36:08;94012.41;;;25.69;51.51
48035;BME280;33812;46.480;6.834;2023-09-08T01:40:10;94002.03;;;25.69;51.53
48035;BME280;33812;46.480;6.834;2023-09-08T01:44:13;94005.59;;;25.70;51.34
48035;BME280;33812;46.480;6.834;2023-09-08T01:48:15;93994.13;;;25.68;51.33
48035;BME280;33812;46.480;6.834;2023-09-08T01:52:17;94000.00;;;25.70;51.44
48035;BME280;33812;46.480;6.834;2023-09-08T01:56:19;93995.69;;;25.69;51.61
48035;BME280;33812;46.480;6.834;2023-09-08T02:00:22;94000.81;;;25.70;51.53
48035;BME280;33812;46.480;6.834;2023-09-08T02:04:24;93985.78;;;25.68;51.68
48035;BME280;33812;46.480;6.834;2023-09-08T02:08:26;93995.69;;;25.69;51.51
48035;BME280;33812;46.480;6.834;2023-09-08T02:12:28;93997.22;;;25.70;51.27
48035;BME280;33812;46.480;6.834;2023-09-08T02:16:31;93990.88;;;25.69;51.62
48035;BME280;33812;46.480;6.834;2023-09-08T02:20:33;93985.78;;;25.68;51.11
48035;BME280;33812;46.480;6.834;2023-09-08T02:24:34;93995.69;;;25.69;51.56
48035;BME280;33812;46.480;6.834;2023-09-08T02:28:36;93992.13;;;25.68;51.52
48035;BME280;33812;46.480;6.834;2023-09-08T02:32:39;93990.56;;;25.67;51.55
48035;BME280;33812;46.480;6.834;2023-09-08T02:36:43;93992.91;;;25.69;51.21
48035;BME280;33812;46.480;6.834;2023-09-08T02:40:48;93991.34;;;25.68;51.46
48035;BME280;33812;46.480;6.834;2023-09-08T02:44:49;93994.13;;;25.68;51.26
48035;BME280;33812;46.480;6.834;2023-09-08T02:48:53;93998.47;;;25.69;51.09
48035;BME280;33812;46.480;6.834;2023-09-08T02:52:55;93996.91;;;25.68;51.25
48035;BME280;33812;46.480;6.834;2023-09-08T02:56:57;93994.91;;;25.68;51.49
48035;BME280;33812;46.480;6.834;2023-09-08T03:01:09;93997.38;;;25.66;51.17
48035;BME280;33812;46.480;6.834;2023-09-08T03:05:14;93994.59;;;25.66;51.60
48035;BME280;33812;46.480;6.834;2023-09-08T03:09:16;94004.47;;;25.67;51.15
48035;BME280;33812;46.480;6.834;2023-09-08T03:13:18;94007.41;;;25.64;50.98
48035;BME280;33812;46.480;6.834;2023-09-08T03:17:20;94004.19;;;25.65;51.34
48035;BME280;33812;46.480;6.834;2023-09-08T03:21:23;93998.16;;;25.67;51.35
48035;BME280;33812;46.480;6.834;2023-09-08T03:25:25;94009.31;;;25.67;51.28
48035;BME280;33812;46.480;6.834;2023-09-08T03:29:26;94005.72;;;25.66;52.63
48035;BME280;33812;46.480;6.834;2023-09-08T03:33:28;93999.69;;;25.68;52.84
48035;BME280;33812;46.480;6.834;2023-09-08T03:37:31;94001.69;;;25.67;52.63
48035;BME280;33812;46.480;6.834;2023-09-08T03:41:33;94006.50;;;25.67;52.76
48035;BME280;33812;46.480;6.834;2023-09-08T03:45:35;94000.94;;;25.67;53.14
48035;BME280;33812;46.480;6.834;2023-09-08T03:49:37;94000.94;;;25.67;52.61
48035;BME280;33812;46.480;6.834;2023-09-08T03:53:40;94002.47;;;25.68;52.83
48035;BME280;33812;46.480;6.834;2023-09-08T03:57:42;94012.84;;;25.67;52.78
48035;BME280;33812;46.480;6.834;2023-09-08T04:01:43;94002.16;;;25.66;52.25
48035;BME280;33812;46.480;6.834;2023-09-08T04:05:45;94003.41;;;25.65;52.14
48035;BME280;33812;46.480;6.834;2023-09-08T04:09:48;94005.41;;;25.64;52.18
48035;BME280;33812;46.480;6.834;2023-09-08T04:13:50;93995.50;;;25.63;51.78
48035;BME280;33812;46.480;6.834;2023-09-08T04:17:52;94006.63;;;25.63;52.15
48035;BME280;33812;46.480;6.834;2023-09-08T04:21:54;94005.84;;;25.63;52.02
48035;BME280;33812;46.480;6.834;2023-09-08T04:25:57;94008.31;;;25.60;51.60
48035;BME280;33812;46.480;6.834;2023-09-08T04:29:59;94008.31;;;25.60;52.02
48035;BME280;33812;46.480;6.834;2023-09-08T04:34:00;94011.41;;;25.63;51.72
48035;BME280;33812;46.480;6.834;2023-09-08T04:38:02;94013.88;;;25.60;51.39
48035;BME280;33812;46.480;6.834;2023-09-08T04:42:06;94021.00;;;25.62;51.37
48035;BME280;33812;46.480;6.834;2023-09-08T04:46:08;94018.69;;;25.60;51.52
48035;BME280;33812;46.480;6.834;2023-09-08T04:50:09;94018.69;;;25.60;51.45
48035;BME280;33812;46.480;6.834;2023-09-08T04:54:11;94022.22;;;25.60;51.71
48035;BME280;33812;46.480;6.834;2023-09-08T04:58:14;94025.03;;;25.60;51.29
48035;BME280;33812;46.480;6.834;2023-09-08T05:02:16;94027.09;;;25.09;51.36
48035;BME280;33812;46.480;6.834;2023-09-08T05:06:18;94029.13;;;24.86;51.70
48035;BME280;33812;46.480;6.834;2023-09-08T05:10:20;94028.25;;;24.99;51.48
48035;BME280;33812;46.480;6.834;2023-09-08T05:14:23;94025.03;;;25.01;51.02
48035;BME280;33812;46.480;6.834;2023-09-08T05:18:25;94025.94;;;24.97;50.80
48035;BME280;33812;46.480;6.834;2023-09-08T05:22:27;94036.31;;;24.97;50.53
48035;BME280;33812;46.480;6.834;2023-09-08T05:26:29;94032.53;;;24.91;50.73
48035;BME280;33812;46.480;6.834;2023-09-08T05:30:33;94040.72;;;24.62;51.74
48035;BME280;33812;46.480;6.834;2023-09-08T05:34:36;94047.00;;;24.76;51.76
48035;BME280;33812;46.480;6.834;2023-09-08T05:38:39;94044.34;;;24.72;52.36
48035;BME280;33812;46.480;6.834;2023-09-08T05:42:45;94049.94;;;24.27;53.34
48035;BME280;33812;46.480;6.834;2023-09-08T05:46:49;94040.72;;;24.62;52.73
48035;BME280;33812;46.480;6.834;2023-09-08T05:50:50;94041.97;;;24.61;52.86
48035;BME280;33812;46.480;6.834;2023-09-08T05:54:52;94042.03;;;24.71;53.47
48035;BME280;33812;46.480;6.834;2023-09-08T05:58:55;94055.63;;;24.46;54.13
48035;BME280;33812;46.480;6.834;2023-09-08T06:02:58;94047.53;;;24.61;53.87
48035;BME280;33812;46.480;6.834;2023-09-08T06:07:00;94050.81;;;24.69;53.96
48035;BME280;33812;46.480;6.834;2023-09-08T06:11:02;94053.00;;;24.43;54.84
48035;BME280;33812;46.480;6.834;2023-09-08T06:15:05;94054.75;;;24.59;54.68
48035;BME280;33812;46.480;6.834;2023-09-08T06:19:08;94057.25;;;24.57;54.64
48035;BME280;33812;46.480;6.834;2023-09-08T06:23:10;94067.25;;;24.54;54.16
48035;BME280;33812;46.480;6.834;2023-09-08T06:27:13;94063.78;;;24.41;54.39
48035;BME280;33812;46.480;6.834;2023-09-08T06:31:15;94074.97;;;24.14;54.76
48035;BME280;33812;46.480;6.834;2023-09-08T06:35:19;94073.41;;;24.26;53.25
48035;BME280;33812;46.480;6.834;2023-09-08T06:39:20;94073.47;;;24.36;53.29
48035;BME280;33812;46.480;6.834;2023-09-08T06:43:22;94066.81;;;24.33;53.43
48035;BME280;33812;46.480;6.834;2023-09-08T06:47:24;94072.16;;;24.50;53.04
48035;BME280;33812;46.480;6.834;2023-09-08T06:51:27;94075.88;;;24.79;52.19
48035;BME280;33812;46.480;6.834;2023-09-08T06:55:29;94079.75;;;24.81;52.52
48035;BME280;33812;46.480;6.834;2023-09-08T06:59:30;94077.13;;;24.87;52.62
48035;BME280;33812;46.480;6.834;2023-09-08T07:03:32;94075.81;;;24.92;52.78
48035;BME280;33812;46.480;6.834;2023-09-08T07:07:38;94068.56;;;24.94;52.61
48035;BME280;33812;46.480;6.834;2023-09-08T07:11:40;94079.22;;;24.96;53.00
48035;BME280;33812;46.480;6.834;2023-09-08T07:15:42;94073.19;;;24.97;53.16
48035;BME280;33812;46.480;6.834;2023-09-08T07:19:43;94084.66;;;24.99;53.17
48035;BME280;33812;46.480;6.834;2023-09-08T07:23:47;94075.09;;;25.01;53.79
48035;BME280;33812;46.480;6.834;2023-09-08T07:27:48;94078.94;;;25.03;53.66
48035;BME280;33812;46.480;6.834;2023-09-08T07:31:53;94080.53;;;25.04;53.88
48035;BME280;33812;46.480;6.834;2023-09-08T07:35:55;94081.13;;;25.08;53.78
48035;BME280;33812;46.480;6.834;2023-09-08T07:39:58;94091.47;;;25.08;54.02
48035;BME280;33812;46.480;6.834;2023-09-08T07:44:00;94080.22;;;25.11;53.71
48035;BME280;33812;46.480;6.834;2023-09-08T07:48:02;94090.59;;;25.11;53.97
48035;BME280;33812;46.480;6.834;2023-09-08T07:52:04;94090.44;;;25.15;54.44
48035;BME280;33812;46.480;6.834;2023-09-08T07:56:09;94090.44;;;25.15;54.57
48035;BME280;33812;46.480;6.834;2023-09-08T08:00:11;94091.19;;;25.15;54.62
48035;BME280;33812;46.480;6.834;2023-09-08T08:04:13;94089.53;;;25.18;54.73
48035;BME280;33812;46.480;6.834;2023-09-08T08:08:15;94083.97;;;25.18;54.59
48035;BME280;33812;46.480;6.834;2023-09-08T08:12:18;94085.50;;;25.19;54.00
48035;BME280;33812;46.480;6.834;2023-09-08T08:16:20;94084.28;;;25.20;53.86
48035;BME280;33812;46.480;6.834;2023-09-08T08:20:22;94085.81;;;25.21;54.30
48035;BME280;33812;46.480;6.834;2023-09-08T08:24:24;94093.72;;;25.22;53.60
48035;BME280;33812;46.480;6.834;2023-09-08T08:28:27;94094.50;;;25.23;53.49
48035;BME280;33812;46.480;6.834;2023-09-08T08:32:28;94086.91;;;25.23;53.95
48035;BME280;33812;46.480;6.834;2023-09-08T08:36:30;94087.69;;;25.24;53.79
48035;BME280;33812;46.480;6.834;2023-09-08T08:40:32;94086.47;;;25.25;53.72
48035;BME280;33812;46.480;6.834;2023-09-08T08:44:37;94087.69;;;25.24;53.62
48035;BME280;33812;46.480;6.834;2023-09-08T08:48:40;94080.91;;;25.25;53.63
48035;BME280;33812;46.480;6.834;2023-09-08T08:52:42;94085.22;;;25.26;53.66
48035;BME280;33812;46.480;6.834;2023-09-08T08:56:44;94078.88;;;25.26;53.39
48035;BME280;33812;46.480;6.834;2023-09-08T09:00:47;94076.88;;;25.26;53.24
48035;BME280;33812;46.480;6.834;2023-09-08T09:04:49;94065.75;;;25.26;53.21
48035;BME280;33812;46.480;6.834;2023-09-08T09:08:50;94068.06;;;25.28;53.47
48035;BME280;33812;46.480;6.834;2023-09-08T09:12:52;94064.50;;;25.27;53.45
48035;BME280;33812;46.480;6.834;2023-09-08T09:16:56;94069.66;;;25.29;53.13
48035;BME280;33812;46.480;6.834;2023-09-08T09:20:59;94073.19;;;25.29;53.23
48035;BME280;33812;46.480;6.834;2023-09-08T09:25:01;94064.06;;;25.29;53.22
48035;BME280;33812;46.480;6.834;2023-09-08T09:29:11;94069.19;;;25.30;53.18
48035;BME280;33812;46.480;6.834;2023-09-08T09:33:15;94072.72;;;25.31;53.37
48035;BME280;33812;46.480;6.834;2023-09-08T09:37:18;94067.47;;;25.33;53.28
48035;BME280;33812;46.480;6.834;2023-09-08T09:41:22;94072.25;;;25.32;53.29
48035;BME280;33812;46.480;6.834;2023-09-08T09:45:24;94066.69;;;25.32;53.36
48035;BME280;33812;46.480;6.834;2023-09-08T09:49:28;94062.69;;;25.33;53.44
48035;BME280;33812;46.480;6.834;2023-09-08T09:53:33;94064.22;;;25.34;53.32
48035;BME280;33812;46.480;6.834;2023-09-08T09:57:35;94061.44;;;25.34;53.48
48035;BME280;33812;46.480;6.834;2023-09-08T10:01:37;94057.91;;;25.34;53.15
48035;BME280;33812;46.480;6.834;2023-09-08T10:05:41;94054.66;;;25.35;53.26
48035;BME280;33812;46.480;6.834;2023-09-08T10:09:43;94065.78;;;25.35;53.50
48035;BME280;33812;46.480;6.834;2023-09-08T10:13:46;94055.41;;;25.36;53.77
48035;BME280;33812;46.480;6.834;2023-09-08T10:17:52;94057.00;;;25.37;53.68
48035;BME280;33812;46.480;6.834;2023-09-08T10:22:00;94054.97;;;25.38;53.30
48035;BME280;33812;46.480;6.834;2023-09-08T10:26:09;94043.84;;;25.38;53.65
48035;BME280;33812;46.480;6.834;2023-09-08T10:30:12;94048.19;;;25.39;53.82
48035;BME280;33812;46.480;6.834;2023-09-08T10:34:14;94033.03;;;25.40;53.86
48035;BME280;33812;46.480;6.834;2023-09-08T10:38:24;94038.91;;;25.42;53.84
48035;BME280;33812;46.480;6.834;2023-09-08T10:42:26;94026.72;;;25.39;53.76
48035;BME280;33812;46.480;6.834;2023-09-08T10:46:31;94025.00;;;25.42;53.95
48035;BME280;33812;46.480;6.834;2023-09-08T10:50:34;94030.56;;;25.42;53.89
48035;BME280;33812;46.480;6.834;2023-09-08T10:54:42;94025.78;;;25.42;53.66
48035;BME280;33812;46.480;6.834;2023-09-08T10:58:48;94027.31;;;25.43;53.91
48035;BME280;33812;46.480;6.834;2023-09-08T11:02:50;94024.06;;;25.45;53.76
48035;BME280;33812;46.480;6.834;2023-09-08T11:06:52;94024.06;;;25.45;53.61
48035;BME280;33812;46.480;6.834;2023-09-08T11:10:55;94014.97;;;25.44;53.50
48035;BME280;33812;46.480;6.834;2023-09-08T11:14:58;94014.50;;;25.46;53.76
48035;BME280;33812;46.480;6.834;2023-09-08T11:19:01;94016.03;;;25.47;53.35
48035;BME280;33812;46.480;6.834;2023-09-08T11:23:05;94018.81;;;25.47;53.81
48035;BME280;33812;46.480;6.834;2023-09-08T11:27:08;94027.16;;;25.47;53.76
48035;BME280;33812;46.480;6.834;2023-09-08T11:31:11;94017.56;;;25.48;53.74
48035;BME280;33812;46.480;6.834;2023-09-08T11:35:13;94012.00;;;25.48;53.86
48035;BME280;33812;46.480;6.834;2023-09-08T11:39:16;94017.13;;;25.50;54.19
48035;BME280;33812;46.480;6.834;2023-09-08T11:43:19;94015.09;;;25.50;54.13
48035;BME280;33812;46.480;6.834;2023-09-08T11:47:21;94017.88;;;25.50;54.15
48035;BME280;33812;46.480;6.834;2023-09-08T11:51:23;94016.69;;;25.51;54.03
48035;BME280;33812;46.480;6.834;2023-09-08T11:55:25;94017.44;;;25.52;54.37
48035;BME280;33812;46.480;6.834;2023-09-08T11:59:30;94006.28;;;25.52;54.30
48035;BME280;33812;46.480;6.834;2023-09-08T12:03:32;94008.66;;;25.53;54.11
48035;BME280;33812;46.480;6.834;2023-09-08T12:07:37;94001.84;;;25.54;54.20
48035;BME280;33812;46.480;6.834;2023-09-08T12:11:39;94005.41;;;25.55;54.05
48035;BME280;33812;46.480;6.834;2023-09-08T12:15:44;94010.19;;;25.54;54.26
48035;BME280;33812;46.480;6.834;2023-09-08T12:19:46;94002.16;;;25.56;54.41
48035;BME280;33812;46.480;6.834;2023-09-08T12:23:49;93993.81;;;25.56;54.33
48035;BME280;33812;46.480;6.834;2023-09-08T12:27:50;93992.56;;;25.57;54.40
48035;BME280;33812;46.480;6.834;2023-09-08T12:31:54;93992.56;;;25.57;54.15
48035;BME280;33812;46.480;6.834;2023-09-08T12:35:56;93984.53;;;25.59;54.28
48035;BME280;33812;46.480;6.834;2023-09-08T12:39:57;93981.75;;;25.59;54.70
48035;BME280;33812;46.480;6.834;2023-09-08T12:44:01;93976.94;;;25.60;54.36
48035;BME280;33812;46.480;6.834;2023-09-08T12:48:05;93972.91;;;25.61;54.74
48035;BME280;33812;46.480;6.834;2023-09-08T12:52:08;93969.25;;;25.64;55.32
48035;BME280;33812;46.480;6.834;2023-09-08T12:56:10;93971.25;;;25.64;54.92
48035;BME280;33812;46.480;6.834;2023-09-08T13:00:13;93968.00;;;25.65;55.14
48035;BME280;33812;46.480;6.834;2023-09-08T13:04:16;93958.09;;;25.64;54.99
48035;BME280;33812;46.480;6.834;2023-09-08T13:08:19;93958.88;;;25.65;55.42
48035;BME280;33812;46.480;6.834;2023-09-08T13:12:22;93953.63;;;25.67;55.33
48035;BME280;33812;46.480;6.834;2023-09-08T13:16:23;93950.06;;;25.66;55.65
48035;BME280;33812;46.480;6.834;2023-09-08T13:20:27;93946.03;;;25.67;55.22
48035;BME280;33812;46.480;6.834;2023-09-08T13:24:28;93939.25;;;25.68;55.64
48035;BME280;33812;46.480;6.834;2023-09-08T13:28:30;93937.25;;;25.69;55.74
48035;BME280;33812;46.480;6.834;2023-09-08T13:32:32;93935.22;;;25.69;55.63
48035;BME280;33812;46.480;6.834;2023-09-08T13:36:37;93930.44;;;25.70;55.44
48035;BME280;33812;46.480;6.834;2023-09-08T13:40:38;93930.75;;;25.72;55.49
48035;BME280;33812;46.480;6.834;2023-09-08T13:44:41;93925.03;;;25.76;55.88
48035;BME280;33812;46.480;6.834;2023-09-08T13:48:43;93917.13;;;25.74;55.97
48035;BME280;33812;46.480;6.834;2023-09-08T13:52:46;93917.13;;;25.74;55.55
48035;BME280;33812;46.480;6.834;2023-09-08T13:56:57;93916.34;;;25.74;56.04
48035;BME280;33812;46.480;6.834;2023-09-08T14:01:00;93918.69;;;25.75;55.99
48035;BME280;33812;46.480;6.834;2023-09-08T14:05:02;93911.84;;;25.76;55.50
48035;BME280;33812;46.480;6.834;2023-09-08T14:09:05;93913.09;;;25.75;55.76
48035;BME280;33812;46.480;6.834;2023-09-08T14:13:07;93910.63;;;25.77;55.61
48035;BME280;33812;46.480;6.834;2023-09-08T14:17:08;93908.63;;;25.78;55.79
48035;BME280;33812;46.480;6.834;2023-09-08T14:21:11;93910.94;;;25.79;55.86
48035;BME280;33812;46.480;6.834;2023-09-08T14:25:14;93910.94;;;25.79;55.65
48035;BME280;33812;46.480;6.834;2023-09-08T14:29:16;93906.91;;;25.80;55.83
48035;BME280;33812;46.480;6.834;2023-09-08T14:33:19;93899.34;;;25.81;56.04
48035;BME280;33812;46.480;6.834;2023-09-08T14:37:21;93901.66;;;25.82;55.86
48035;BME280;33812;46.480;6.834;2023-09-08T14:41:24;93896.09;;;25.82;56.11
48035;BME280;33812;46.480;6.834;2023-09-08T14:45:26;93893.63;;;25.85;56.20
48035;BME280;33812;46.480;6.834;2023-09-08T14:49:28;93889.28;;;25.83;56.34
48035;BME280;33812;46.480;6.834;2023-09-08T14:53:30;93882.47;;;25.85;56.13
48035;BME280;33812;46.480;6.834;2023-09-08T14:57:33;93883.22;;;25.85;56.25
48035;BME280;33812;46.480;6.834;2023-09-08T15:01:35;93886.81;;;25.86;56.32
48035;BME280;33812;46.480;6.834;2023-09-08T15:05:40;93890.38;;;25.86;56.24
48035;BME280;33812;46.480;6.834;2023-09-08T15:09:41;93887.13;;;25.88;56.47
48035;BME280;33812;46.480;6.834;2023-09-08T15:13:44;93887.13;;;25.88;56.30
48035;BME280;33812;46.480;6.834;2023-09-08T15:17:46;93884.63;;;25.90;56.37
48035;BME280;33812;46.480;6.834;2023-09-08T15:21:48;93879.06;;;25.90;56.51
48035;BME280;33812;46.480;6.834;2023-09-08T15:25:51;93879.81;;;25.90;56.52
48035;BME280;33812;46.480;6.834;2023-09-08T15:29:54;93869.47;;;25.91;56.65
48035;BME280;33812;46.480;6.834;2023-09-08T15:33:55;93875.03;;;25.91;56.59
48035;BME280;33812;46.480;6.834;2023-09-08T15:37:57;93871.00;;;25.92;56.68
48035;BME280;33812;46.480;6.834;2023-09-08T15:41:59;93865.44;;;25.92;56.41
48035;BME280;33812;46.480;6.834;2023-09-08T15:46:02;93872.56;;;25.93;56.35
48035;BME280;33812;46.480;6.834;2023-09-08T15:50:05;93865.75;;;25.94;56.30
48035;BME280;33812;46.480;6.834;2023-09-08T15:54:09;93864.53;;;25.95;56.76
48035;BME280;33812;46.480;6.834;2023-09-08T15:58:12;93864.53;;;25.95;57.06
48035;BME280;33812;46.480;6.834;2023-09-08T16:02:15;93863.56;;;25.98;56.86
48035;BME280;33812;46.480;6.834;2023-09-08T16:06:17;93860.31;;;26.00;56.86
48035;BME280;33812;46.480;6.834;2023-09-08T16:10:19;93863.88;;;26.00;57.08
48035;BME280;33812;46.480;6.834;2023-09-08T16:14:21;93861.09;;;26.00;57.61
48035;BME280;33812;46.480;6.834;2023-09-08T16:18:26;93866.50;;;26.04;57.62
48035;BME280;33812;46.480;6.834;2023-09-08T16:22:28;93859.38;;;26.03;57.58
48035;BME280;33812;46.480;6.834;2023-09-08T16:26:29;93853.06;;;26.02;57.42
48035;BME280;33812;46.480;6.834;2023-09-08T16:30:31;93846.72;;;26.02;57.63
48035;BME280;33812;46.480;6.834;2023-09-08T16:34:34;93851.81;;;26.03;57.53
48035;BME280;33812;46.480;6.834;2023-09-08T16:38:36;93851.03;;;26.03;57.38
48035;BME280;33812;46.480;6.834;2023-09-08T16:42:38;93854.59;;;26.03;57.69
48035;BME280;33812;46.480;6.834;2023-09-08T16:46:40;93853.94;;;26.08;57.22
48035;BME280;33812;46.480;6.834;2023-09-08T16:50:43;93859.22;;;26.06;57.65
48035;BME280;33812;46.480;6.834;2023-09-08T16:54:44;93860.78;;;26.07;57.23
48035;BME280;33812;46.480;6.834;2023-09-08T16:58:47;93858.75;;;26.08;57.38
48035;BME280;33812;46.480;6.834;2023-09-08T17:02:51;93864.63;;;26.10;57.21
48035;BME280;33812;46.480;6.834;2023-09-08T17:06:55;93862.91;;;26.13;57.49
48035;BME280;33812;46.480;6.834;2023-09-08T17:11:02;93862.91;;;26.13;57.87
48035;BME280;33812;46.480;6.834;2023-09-08T17:15:05;93860.13;;;26.13;57.60
48035;BME280;33812;46.480;6.834;2023-09-08T17:19:07;93862.91;;;26.13;57.92
48035;BME280;33812;46.480;6.834;2023-09-08T17:23:11;93855.78;;;26.12;57.56
48035;BME280;33812;46.480;6.834;2023-09-08T17:27:13;93856.56;;;26.12;57.21
48035;BME280;33812;46.480;6.834;2023-09-08T17:31:15;93861.38;;;26.12;56.28
48035;BME280;33812;46.480;6.834;2023-09-08T17:35:17;93863.84;;;26.10;52.65
48035;BME280;33812;46.480;6.834;2023-09-08T17:39:20;93863.84;;;26.10;50.69
48035;BME280;33812;46.480;6.834;2023-09-08T17:43:22;93863.09;;;26.09;50.00
48035;BME280;33812;46.480;6.834;2023-09-08T17:47:23;93867.88;;;26.08;49.41
48035;BME280;33812;46.480;6.834;2023-09-08T17:51:25;93859.69;;;26.05;49.38
48035;BME280;33812;46.480;6.834;2023-09-08T17:55:30;93864.47;;;26.04;48.03
48035;BME280;33812;46.480;6.834;2023-09-08T17:59:32;93864.47;;;26.04;47.84
48035;BME280;33812;46.480;6.834;2023-09-08T18:03:34;93869.28;;;26.04;47.16
48035;BME280;33812;46.480;6.834;2023-09-08T18:07:36;93866.97;;;26.02;46.44
48035;BME280;33812;46.480;6.834;2023-09-08T18:11:39;93871.13;;;26.07;47.10
48035;BME280;33812;46.480;6.834;2023-09-08T18:15:41;93872.34;;;26.06;47.01
48035;BME280;33812;46.480;6.834;2023-09-08T18:19:43;93877.94;;;26.06;46.50
48035;BME280;33812;46.480;6.834;2023-09-08T18:23:45;93879.19;;;26.05;47.19
48035;BME280;33812;46.480;6.834;2023-09-08T18:27:49;93877.66;;;26.04;46.91
48035;BME280;33812;46.480;6.834;2023-09-08T18:31:51;93881.66;;;26.03;45.97
48035;BME280;33812;46.480;6.834;2023-09-08T18:35:53;93884.59;;;25.99;45.69
48035;BME280;33812;46.480;6.834;2023-09-08T18:39:55;93896.03;;;26.01;46.21
48035;BME280;33812;46.480;6.834;2023-09-08T18:43:59;93896.34;;;26.03;47.90
48035;BME280;33812;46.480;6.834;2023-09-08T18:48:00;93893.59;;;25.94;47.30
48035;BME280;33812;46.480;6.834;2023-09-08T18:52:03;93899.94;;;25.94;47.90
48035;BME280;33812;46.480;6.834;2023-09-08T18:56:05;93902.56;;;25.89;47.45
48035;BME280;33812;46.480;6.834;2023-09-08T19:00:09;93910.91;;;25.89;47.87
48035;BME280;33812;46.480;6.834;2023-09-08T19:04:11;93898.84;;;25.92;47.34
48035;BME280;33812;46.480;6.834;2023-09-08T19:08:13;93907.81;;;25.87;45.64
48035;BME280;33812;46.480;6.834;2023-09-08T19:12:14;93903.81;;;25.88;45.37
48035;BME280;33812;46.480;6.834;2023-09-08T19:16:18;93908.28;;;25.85;45.45
48035;BME280;33812;46.480;6.834;2023-09-08T19:20:19;93909.38;;;25.88;45.45
48035;BME280;33812;46.480;6.834;2023-09-08T19:24:23;93909.22;;;25.91;45.04
48035;BME280;33812;46.480;6.834;2023-09-08T19:28:25;93905.19;;;25.92;45.49
48035;BME280;33812;46.480;6.834;2023-09-08T19:32:28;93907.22;;;25.82;44.69
48035;BME280;33812;46.480;6.834;2023-09-08T19:36:30;93911.69;;;25.89;45.74
48035;BME280;33812;46.480;6.834;2023-09-08T19:40:32;93911.84;;;25.86;45.86
48035;BME280;33812;46.480;6.834;2023-09-08T19:44:34;93906.59;;;25.88;46.06
48035;BME280;33812;46.480;6.834;2023-09-08T19:48:37;93909.38;;;25.88;46.33
48035;BME280;33812;46.480;6.834;2023-09-08T19:52:39;93907.06;;;25.86;45.88
48035;BME280;33812;46.480;6.834;2023-09-08T19:56:41;93903.81;;;25.88;46.53
48035;BME280;33812;46.480;6.834;2023-09-08T20:00:42;93914.16;;;25.87;46.20
48035;BME280;33812;46.480;6.834;2023-09-08T20:04:45;93913.25;;;25.81;46.21
48035;BME280;33812;46.480;6.834;2023-09-08T20:08:47;93906.91;;;25.80;45.77
48035;BME280;33812;46.480;6.834;2023-09-08T20:12:49;93904.44;;;25.82;45.76
48035;BME280;33812;46.480;6.834;2023-09-08T20:16:51;93914.66;;;25.76;46.04
48035;BME280;33812;46.480;6.834;2023-09-08T20:20:54;93913.41;;;25.77;46.07
48035;BME280;33812;46.480;6.834;2023-09-08T20:24:56;93916.22;;;25.77;46.34
48035;BME280;33812;46.480;6.834;2023-09-08T20:28:57;93914.66;;;25.76;46.01
48035;BME280;33812;46.480;6.834;2023-09-08T20:32:59;93910.63;;;25.77;45.93
48035;BME280;33812;46.480;6.834;2023-09-08T20:37:02;93907.06;;;25.77;46.13
48035;BME280;33812;46.480;6.834;2023-09-08T20:41:08;93899.19;;;25.75;46.54
48035;BME280;33812;46.480;6.834;2023-09-08T20:45:11;93903.66;;;25.73;46.67
48035;BME280;33812;46.480;6.834;2023-09-08T20:49:13;93903.66;;;25.73;46.52
48035;BME280;33812;46.480;6.834;2023-09-08T20:53:16;93902.28;;;25.77;46.41
48035;BME280;33812;46.480;6.834;2023-09-08T20:57:17;93904.75;;;25.75;46.71
48035;BME280;33812;46.480;6.834;2023-09-08T21:01:20;93907.81;;;25.87;45.93
48035;BME280;33812;46.480;6.834;2023-09-08T21:05:22;93910.91;;;25.89;46.06
48035;BME280;33812;46.480;6.834;2023-09-08T21:09:26;93916.81;;;25.91;45.92
48035;BME280;33812;46.480;6.834;2023-09-08T21:13:27;93909.69;;;25.90;45.76
48035;BME280;33812;46.480;6.834;2023-09-08T21:17:29;93907.97;;;25.92;45.63
48035;BME280;33812;46.480;6.834;2023-09-08T21:21:31;93898.84;;;25.92;45.75
48035;BME280;33812;46.480;6.834;2023-09-08T21:25:35;93909.97;;;25.92;46.01